Time;durP1;ratioP1;P1;durP2;ratioP2;P2;SDS_P1;SDS_P2;PMS_P1;PMS_P2;Temp;Humidity;BMP_temperature;BMP_pressure;BME280_temperature;BME280_humidity;BME280_pressure;Samples;Min_cycle;Max_cycle;Signal;HPM_P1;HPM_P2
2021/12/08 00:00:04;;;;;;;26.95;11.18;;;;;;;-0.57;56.60;100054.66;5114855;28;20479;-79
2021/12/08 00:02:31;;;;;;;21.75;13.95;;;;;;;-0.61;56.36;100054.75;5111765;28;20043;-77
2021/12/08 00:05:00;;;;;;;19.60;10.20;;;;;;;-0.61;56.83;100061.69;5121918;28;20087;-69
2021/12/08 00:07:27;;;;;;;18.67;10.07;;;;;;;-0.64;56.62;100054.84;5117371;28;20046;-74
2021/12/08 00:10:04;;;;;;;17.50;9.23;;;;;;;-0.65;56.44;100050.56;5113419;28;20070;-69
2021/12/08 00:15:16;;;;;;;18.52;9.45;;;;;;;-0.71;56.83;100045.53;5113473;28;20054;-83
2021/12/08 00:17:43;;;;;;;12.73;7.70;;;;;;;-0.72;56.75;100048.16;5109095;28;20046;-69
2021/12/08 00:20:12;;;;;;;16.98;8.73;;;;;;;-0.73;56.79;100034.34;5112890;28;20082;-78
2021/12/08 00:22:39;;;;;;;12.70;7.10;;;;;;;-0.79;56.54;100039.75;5115267;28;20127;-70
2021/12/08 00:25:07;;;;;;;20.98;10.88;;;;;;;-0.88;56.51;100043.44;5108848;28;20043;-69
2021/12/08 00:27:35;;;;;;;18.42;9.68;;;;;;;-0.84;56.48;100052.81;5107553;28;20051;-67
2021/12/08 00:30:02;;;;;;;15.95;8.45;;;;;;;-0.92;56.60;100056.53;5092074;28;20708;-68
2021/12/08 00:32:31;;;;;;;17.77;9.45;;;;;;;-0.98;56.71;100053.22;5109925;28;20088;-67
2021/12/08 00:34:58;;;;;;;16.42;8.98;;;;;;;-0.97;56.72;100054.91;5109919;28;20495;-71
2021/12/08 00:37:28;;;;;;;19.60;11.45;;;;;;;-1.00;56.88;100038.59;5109519;28;20051;-66
2021/12/08 00:39:56;;;;;;;17.38;9.85;;;;;;;-1.03;56.52;100046.47;5109319;28;20471;-67
2021/12/08 00:42:23;;;;;;;20.80;13.55;;;;;;;-1.07;56.67;100050.03;5108279;28;20709;-68
2021/12/08 00:44:50;;;;;;;21.52;10.75;;;;;;;-1.08;56.58;100049.19;5109694;28;20050;-69
2021/12/08 00:47:17;;;;;;;16.52;10.55;;;;;;;-1.13;56.69;100050.19;5110852;28;20126;-71
2021/12/08 00:49:46;;;;;;;16.15;10.65;;;;;;;-1.20;56.66;100060.75;5107858;28;20643;-68
2021/12/08 00:52:15;;;;;;;20.58;12.48;;;;;;;-1.25;56.82;100061.75;5109528;28;20074;-75
2021/12/08 00:54:44;;;;;;;16.75;8.20;;;;;;;-1.30;56.79;100064.47;5107743;28;20049;-69
2021/12/08 00:57:11;;;;;;;17.23;9.43;;;;;;;-1.33;57.11;100066.28;5110432;28;20044;-74
2021/12/08 00:59:39;;;;;;;14.73;8.27;;;;;;;-1.36;57.00;100073.25;5093363;28;20044;-74
2021/12/08 01:02:06;;;;;;;20.88;8.85;;;;;;;-1.37;56.81;100063.78;5107839;28;20051;-68
2021/12/08 01:04:34;;;;;;;22.80;11.60;;;;;;;-1.39;57.02;100060.41;5107457;28;20288;-72
2021/12/08 01:07:01;;;;;;;39.47;20.55;;;;;;;-1.32;57.09;100057.63;5107388;28;20123;-73
2021/12/08 01:09:29;;;;;;;26.05;17.38;;;;;;;-1.32;57.07;100053.28;5107890;28;20039;-68
2021/12/08 01:12:01;;;;;;;20.63;13.40;;;;;;;-1.36;56.97;100049.94;5106585;28;20050;-68
2021/12/08 01:14:29;;;;;;;20.00;9.85;;;;;;;-1.42;57.01;100052.69;5106267;28;20494;-68
2021/12/08 01:16:58;;;;;;;16.13;10.77;;;;;;;-1.43;57.07;100050.16;5106097;28;20055;-68
2021/12/08 01:19:26;;;;;;;27.35;13.75;;;;;;;-1.44;57.23;100046.72;5106737;28;20168;-67
2021/12/08 01:21:54;;;;;;;17.83;10.02;;;;;;;-1.48;57.19;100036.47;5106266;28;20047;-70
2021/12/08 01:24:21;;;;;;;16.52;10.45;;;;;;;-1.52;57.21;100029.66;5104659;28;20070;-68
2021/12/08 01:26:49;;;;;;;22.60;15.02;;;;;;;-1.60;57.50;100032.47;5106148;28;20058;-67
2021/12/08 01:29:18;;;;;;;10.88;7.30;;;;;;;-1.66;57.41;100037.78;5105711;28;20082;-69
2021/12/08 01:31:45;;;;;;;30.65;18.25;;;;;;;-1.77;57.46;100036.31;5106479;28;20586;-66
2021/12/08 01:34:13;;;;;;;29.83;13.27;;;;;;;-1.78;57.58;100034.63;5106756;28;20213;-66
2021/12/08 01:36:41;;;;;;;24.08;11.90;;;;;;;-1.73;57.81;100034.50;5105547;28;20511;-67
2021/12/08 01:39:09;;;;;;;25.23;12.18;;;;;;;-1.65;57.57;100047.28;5106960;28;20139;-67
2021/12/08 01:41:36;;;;;;;34.33;17.30;;;;;;;-1.67;57.83;100043.88;5106260;28;20051;-68
2021/12/08 01:46:53;;;;;;;34.63;19.13;;;;;;;-1.61;57.79;100038.53;5108960;28;20412;-69
2021/12/08 01:49:21;;;;;;;29.60;14.43;;;;;;;-1.63;57.97;100035.97;5105392;28;20044;-68
2021/12/08 01:51:48;;;;;;;22.50;10.27;;;;;;;-1.62;57.76;100024.75;5106138;28;20043;-67
2021/12/08 01:54:16;;;;;;;31.00;15.52;;;;;;;-1.60;58.09;100022.09;5104341;28;20044;-69
2021/12/08 01:56:43;;;;;;;30.80;13.88;;;;;;;-1.61;57.89;100016.06;5105556;28;20061;-76
2021/12/08 01:59:11;;;;;;;29.50;14.27;;;;;;;-1.59;58.09;100013.44;5105609;28;20127;-66
2021/12/08 02:01:42;;;;;;;31.25;13.85;;;;;;;-1.52;57.97;100008.94;5106040;28;20109;-67
2021/12/08 02:04:11;;;;;;;35.75;20.70;;;;;;;-1.51;57.98;100008.03;5106751;28;20419;-74
2021/12/08 02:06:41;;;;;;;20.85;9.38;;;;;;;-1.50;58.06;100004.56;5108047;28;20053;-75
2021/12/08 02:09:13;;;;;;;31.50;18.38;;;;;;;-1.50;58.13;99997.63;5089889;28;20055;-75
2021/12/08 02:11:44;;;;;;;26.98;13.02;;;;;;;-1.49;58.25;99995.94;5110551;28;20043;-73
2021/12/08 02:14:12;;;;;;;41.80;18.40;;;;;;;-1.57;58.26;99991.81;5121233;28;20689;-74
2021/12/08 02:16:39;;;;;;;27.25;14.25;;;;;;;-1.57;58.45;100002.16;5116928;28;20127;-70
2021/12/08 02:19:07;;;;;;;23.95;11.20;;;;;;;-1.63;58.10;99999.72;5115660;28;20127;-66
2021/12/08 02:21:39;;;;;;;18.98;10.60;;;;;;;-1.70;58.43;100000.75;5115885;28;20053;-75
2021/12/08 02:24:09;;;;;;;33.40;15.48;;;;;;;-1.66;58.81;99997.19;5094957;28;20036;-78
2021/12/08 02:26:38;;;;;;;34.55;14.07;;;;;;;-1.58;58.70;99997.00;5114368;28;20130;-82
2021/12/08 02:29:17;;;;;;;29.70;13.23;;;;;;;-1.45;58.64;100000.13;5112224;28;20131;-83
2021/12/08 02:31:51;;;;;;;39.05;18.67;;;;;;;-1.47;58.42;100000.16;5113386;28;20064;-75
2021/12/08 02:48:06;;;;;;;34.58;18.73;;;;;;;-1.57;58.83;100004.75;5113836;28;20193;-75
2021/12/08 02:50:37;;;;;;;27.65;13.27;;;;;;;-1.54;58.86;100011.56;5113801;28;20050;-78
2021/12/08 02:53:07;;;;;;;28.60;14.05;;;;;;;-1.57;58.86;100012.53;5110397;28;20074;-77
2021/12/08 02:55:34;;;;;;;38.70;19.00;;;;;;;-1.58;58.98;100016.00;5111809;28;20122;-76
2021/12/08 02:58:03;;;;;;;34.35;19.13;;;;;;;-1.51;58.76;100008.03;5111153;28;20154;-74
2021/12/08 03:00:32;;;;;;;31.65;14.38;;;;;;;-1.47;58.79;100007.94;5109214;28;20039;-83
2021/12/08 03:03:03;;;;;;;27.92;12.70;;;;;;;-1.46;59.11;100012.22;5110482;28;20069;-74
2021/12/08 03:05:32;;;;;;;27.10;12.32;;;;;;;-1.45;58.78;100006.16;5114590;28;20048;-79
2021/12/08 03:07:59;;;;;;;28.50;14.55;;;;;;;-1.44;58.63;100005.25;5109327;28;20043;-81
2021/12/08 03:10:30;;;;;;;37.45;20.70;;;;;;;-1.50;58.89;100005.41;5109944;28;20355;-72
2021/12/08 03:12:57;;;;;;;23.05;12.43;;;;;;;-1.52;58.99;100002.03;5111854;28;20048;-83
2021/12/08 03:15:24;;;;;;;21.75;11.63;;;;;;;-1.59;58.88;99996.16;5090650;28;20075;-70
2021/12/08 03:17:51;;;;;;;32.10;17.10;;;;;;;-1.63;59.32;99991.09;5109791;28;20112;-75
2021/12/08 03:20:26;;;;;;;31.95;15.15;;;;;;;-1.67;59.60;99989.50;5110565;28;20360;-70
2021/12/08 03:23:00;;;;;;;34.20;13.82;;;;;;;-1.70;59.44;99976.63;5108176;28;20044;-82
2021/12/08 03:25:36;;;;;;;29.85;15.98;;;;;;;-1.75;59.26;99964.66;5091804;28;20044;-77
2021/12/08 03:28:11;;;;;;;28.65;12.85;;;;;;;-1.73;59.63;99960.28;5114877;28;20058;-68
2021/12/08 03:30:51;;;;;;;24.83;10.80;;;;;;;-1.67;59.48;99971.38;5108250;28;20403;-76
2021/12/08 03:33:18;;;;;;;34.25;14.85;;;;;;;-1.57;59.38;99965.03;5110559;28;20043;-74
2021/12/08 03:35:46;;;;;;;25.17;11.18;;;;;;;-1.55;58.92;99960.66;5118128;28;20451;-69
2021/12/08 03:38:13;;;;;;;37.08;14.85;;;;;;;-1.56;59.07;99954.63;5054353;28;20043;-77
2021/12/08 03:40:41;;;;;;;30.13;15.77;;;;;;;-1.58;59.20;99953.84;5107768;28;20066;-79
2021/12/08 03:43:08;;;;;;;30.58;14.05;;;;;;;-1.64;59.12;99953.13;5107223;28;20050;-73
2021/12/08 03:45:43;;;;;;;26.70;13.98;;;;;;;-1.66;59.52;99954.94;5108700;28;20172;-73
2021/12/08 03:48:13;;;;;;;30.10;17.10;;;;;;;-1.76;59.44;99952.59;5110781;28;20047;-68
2021/12/08 03:50:44;;;;;;;38.15;20.15;;;;;;;-1.70;59.81;99956.75;5090985;28;20446;-70
2021/12/08 03:53:16;;;;;;;36.53;19.90;;;;;;;-1.67;59.67;99955.84;5110303;28;20066;-67
2021/12/08 03:55:48;;;;;;;35.13;17.80;;;;;;;-1.58;59.69;99947.81;5111080;28;20079;-75
2021/12/08 03:58:17;;;;;;;40.67;18.48;;;;;;;-1.50;59.79;99938.06;5109357;28;20050;-68
2021/12/08 04:00:46;;;;;;;42.50;24.00;;;;;;;-1.55;59.39;99927.84;5089687;28;20052;-71
2021/12/08 04:03:14;;;;;;;26.83;13.50;;;;;;;-1.58;59.43;99933.13;5110173;28;20047;-69
2021/12/08 04:05:46;;;;;;;26.48;13.38;;;;;;;-1.59;60.00;99930.56;5111057;28;20040;-68
2021/12/08 04:08:18;;;;;;;20.15;10.60;;;;;;;-1.71;59.71;99946.44;5109403;28;20051;-73
2021/12/08 04:10:51;;;;;;;29.83;15.90;;;;;;;-1.73;59.82;99943.88;5108702;28;20040;-68
2021/12/08 04:13:25;;;;;;;29.02;15.07;;;;;;;-1.77;60.13;99937.09;5091996;28;20172;-69
2021/12/08 04:15:53;;;;;;;17.58;10.73;;;;;;;-1.77;59.70;99937.94;5110570;28;20693;-73
2021/12/08 04:18:20;;;;;;;21.42;11.63;;;;;;;-1.80;59.68;99938.03;5109524;28;20066;-72
2021/12/08 04:20:51;;;;;;;28.92;12.55;;;;;;;-1.81;59.88;99933.72;5109477;28;20048;-75
2021/12/08 04:23:21;;;;;;;29.30;13.40;;;;;;;-1.79;60.04;99918.16;5118159;28;20044;-81
2021/12/08 04:25:54;;;;;;;36.85;18.35;;;;;;;-1.76;59.83;99908.56;5118847;28;20044;-68
2021/12/08 04:28:25;;;;;;;42.20;14.13;;;;;;;-1.81;59.98;99904.41;5116925;28;20040;-80
2021/12/08 04:30:57;;;;;;;16.85;9.32;;;;;;;-1.93;59.81;99901.28;5114267;28;20086;-75
2021/12/08 04:33:25;;;;;;;21.80;11.40;;;;;;;-2.04;60.31;99907.63;5114967;28;20040;-76
2021/12/08 04:35:53;;;;;;;45.25;18.20;;;;;;;-2.05;60.32;99898.13;5113681;28;20138;-82
2021/12/08 04:38:26;;;;;;;29.80;13.65;;;;;;;-2.08;60.47;99895.66;5112921;28;20047;-70
2021/12/08 04:41:02;;;;;;;33.92;15.30;;;;;;;-2.12;60.37;99889.72;5114155;28;20130;-76
2021/12/08 04:43:35;;;;;;;40.58;18.38;;;;;;;-2.14;60.47;99902.69;5114034;28;20474;-77
2021/12/08 04:46:12;;;;;;;44.17;13.25;;;;;;;-2.12;60.24;99902.66;5115075;28;20048;-78
2021/12/08 04:48:57;;;;;;;36.92;16.40;;;;;;;-2.15;60.10;99905.31;5111755;28;20044;-71
2021/12/08 04:51:42;;;;;;;44.03;19.17;;;;;;;-2.09;60.46;99899.13;5114312;28;20051;-71
2021/12/08 05:03:02;;;;;;;32.75;13.93;;;;;;;-1.95;59.90;99908.22;5111972;28;20051;-78
2021/12/08 05:05:49;;;;;;;37.22;16.50;;;;;;;-1.89;60.15;99896.00;5113226;28;20052;-83
2021/12/08 05:08:21;;;;;;;28.27;13.70;;;;;;;-1.84;60.18;99897.56;5118232;28;20071;-84
2021/12/08 05:10:51;;;;;;;46.80;21.58;;;;;;;-1.81;60.00;99894.91;5111497;28;20127;-77
2021/12/08 05:13:20;;;;;;;41.00;16.02;;;;;;;-1.82;60.00;99898.41;5111857;28;20050;-72
2021/12/08 05:15:52;;;;;;;28.75;13.05;;;;;;;-1.80;60.21;99895.75;5110762;28;20075;-70
2021/12/08 05:18:22;;;;;;;35.90;14.93;;;;;;;-1.83;60.29;99896.69;5111049;28;20044;-77
2021/12/08 05:20:53;;;;;;;42.00;16.05;;;;;;;-1.77;60.13;99899.09;5112224;28;20074;-72
2021/12/08 05:23:24;;;;;;;39.13;19.17;;;;;;;-1.72;60.11;99896.38;5115219;28;20043;-75
2021/12/08 05:25:53;;;;;;;38.10;17.63;;;;;;;-1.66;59.99;99903.97;5110179;28;20611;-75
2021/12/08 05:28:25;;;;;;;30.60;16.10;;;;;;;-1.63;60.03;99893.53;5108242;28;20139;-71
2021/12/08 05:30:55;;;;;;;27.77;13.98;;;;;;;-1.74;60.13;99893.84;5110648;28;20165;-77
2021/12/08 05:33:22;;;;;;;32.55;13.32;;;;;;;-1.77;60.37;99893.91;5112392;28;20126;-80
2021/12/08 05:35:49;;;;;;;29.25;14.10;;;;;;;-1.75;60.63;99888.69;5112866;28;20040;-69
2021/12/08 05:38:18;;;;;;;26.35;15.57;;;;;;;-1.72;60.75;99888.63;5115018;28;20040;-69
2021/12/08 05:40:53;;;;;;;23.85;13.57;;;;;;;-1.69;60.46;99890.25;5113776;28;20083;-70
2021/12/08 05:43:22;;;;;;;25.73;13.15;;;;;;;-1.69;60.41;99892.84;5116686;28;20412;-69
2021/12/08 05:45:52;;;;;;;29.17;13.60;;;;;;;-1.73;60.46;99892.97;5100548;28;20583;-73
2021/12/08 05:48:20;;;;;;;20.52;12.27;;;;;;;-1.75;60.43;99893.88;5114863;28;20071;-68
2021/12/08 05:50:53;;;;;;;23.63;11.98;;;;;;;-1.67;60.80;99904.03;5116094;28;20031;-70
2021/12/08 05:53:21;;;;;;;28.65;16.10;;;;;;;-1.64;60.66;99904.81;5117998;28;20155;-74
2021/12/08 05:55:50;;;;;;;29.38;16.35;;;;;;;-1.65;60.41;99916.03;5097187;28;20672;-69
2021/12/08 05:58:20;;;;;;;26.13;14.40;;;;;;;-1.64;60.69;99915.16;5114632;28;20047;-69
2021/12/08 06:00:52;;;;;;;38.88;18.65;;;;;;;-1.57;60.43;99916.69;5113452;28;20046;-72
2021/12/08 06:03:21;;;;;;;24.10;12.38;;;;;;;-1.55;60.41;99919.22;5117083;28;20093;-66
2021/12/08 06:05:51;;;;;;;18.13;10.32;;;;;;;-1.58;60.35;99932.28;5093574;28;20078;-67
2021/12/08 06:08:20;;;;;;;22.75;11.13;;;;;;;-1.63;60.06;99927.22;5109036;28;20053;-68
2021/12/08 06:10:49;;;;;;;31.33;19.67;;;;;;;-1.68;60.44;99923.06;5089250;28;20061;-67
2021/12/08 06:13:17;;;;;;;25.42;12.40;;;;;;;-1.64;60.29;99924.66;5107323;28;20123;-69
2021/12/08 06:15:48;;;;;;;23.02;9.85;;;;;;;-1.65;60.12;99931.59;5106407;28;20461;-66
2021/12/08 06:18:22;;;;;;;28.48;15.77;;;;;;;-1.69;60.21;99934.28;5105945;28;20217;-73
2021/12/08 06:20:50;;;;;;;30.65;15.32;;;;;;;-1.71;60.04;99936.06;5104777;28;20155;-66
2021/12/08 06:23:19;;;;;;;28.40;12.52;;;;;;;-1.61;60.24;99935.78;5108731;28;20043;-77
2021/12/08 06:25:46;;;;;;;30.50;13.52;;;;;;;-1.66;59.85;99939.38;5105403;28;20062;-65
2021/12/08 06:28:13;;;;;;;12.30;8.38;;;;;;;-1.71;59.76;99941.25;5104849;28;20130;-71
2021/12/08 06:30:45;;;;;;;20.52;9.18;;;;;;;-1.76;59.92;99943.97;5103709;28;20045;-66
2021/12/08 06:33:14;;;;;;;37.75;18.80;;;;;;;-1.75;60.04;99943.94;5103533;28;20290;-65
2021/12/08 06:35:51;;;;;;;26.20;14.13;;;;;;;-1.75;60.18;99945.66;5104290;28;20043;-64
2021/12/08 06:38:19;;;;;;;30.27;17.05;;;;;;;-1.71;59.92;99933.47;5109383;28;20044;-71
2021/12/08 06:40:49;;;;;;;22.80;12.68;;;;;;;-1.73;59.85;99925.75;5105163;28;20101;-66
2021/12/08 06:43:20;;;;;;;26.00;13.73;;;;;;;-1.80;60.01;99938.03;5112105;28;20092;-69
2021/12/08 06:45:50;;;;;;;24.50;12.90;;;;;;;-1.78;59.92;99945.75;5112692;28;20122;-73
2021/12/08 06:48:23;;;;;;;23.50;12.95;;;;;;;-1.86;60.20;99942.50;5105592;28;20044;-75
2021/12/08 06:50:55;;;;;;;31.17;12.95;;;;;;;-1.94;60.07;99945.31;5110949;28;20039;-69
2021/12/08 06:53:23;;;;;;;26.17;12.60;;;;;;;-2.01;60.12;99936.00;5105692;28;20054;-73
2021/12/08 06:55:53;;;;;;;22.88;12.50;;;;;;;-2.02;60.40;99942.06;5104385;28;20224;-76
2021/12/08 06:58:23;;;;;;;29.73;13.82;;;;;;;-1.99;60.42;99942.00;5105295;28;20052;-76
2021/12/08 07:01:02;;;;;;;34.42;13.75;;;;;;;-1.99;60.48;99953.19;5106231;28;20070;-71
2021/12/08 07:03:37;;;;;;;26.38;12.48;;;;;;;-1.92;60.36;99948.72;5105833;28;20048;-75
2021/12/08 07:06:29;;;;;;;22.25;12.70;;;;;;;-1.96;60.04;99940.19;5106022;28;20047;-75
2021/12/08 07:08:57;;;;;;;24.10;12.10;;;;;;;-2.01;59.91;99944.63;5105612;28;20050;-68
2021/12/08 07:11:26;;;;;;;24.48;11.27;;;;;;;-2.06;60.01;99937.88;5107051;28;20039;-78
2021/12/08 07:13:55;;;;;;;27.55;12.40;;;;;;;-2.03;60.20;99930.03;5106064;28;20044;-74
2021/12/08 07:16:24;;;;;;;22.83;12.00;;;;;;;-2.03;60.27;99935.22;5106654;28;20527;-72
2021/12/08 07:19:00;;;;;;;35.20;17.00;;;;;;;-2.08;60.20;99926.72;5107529;28;20058;-78
2021/12/08 07:21:34;;;;;;;32.80;20.52;;;;;;;-2.12;60.11;99924.19;5109166;28;20048;-74
2021/12/08 07:24:08;;;;;;;38.53;20.37;;;;;;;-2.19;60.59;99917.47;5108022;28;20043;-72
2021/12/08 07:26:39;;;;;;;39.42;17.30;;;;;;;-2.16;60.18;99914.81;5110215;28;20085;-77
2021/12/08 07:29:11;;;;;;;30.23;15.07;;;;;;;-2.19;60.50;99920.06;5112904;28;20101;-79
2021/12/08 07:31:42;;;;;;;33.03;14.63;;;;;;;-2.18;60.65;99919.19;5109724;28;20066;-73
2021/12/08 07:34:17;;;;;;;24.50;13.10;;;;;;;-2.16;60.59;99927.75;5114606;28;20048;-70
2021/12/08 07:36:49;;;;;;;41.53;18.75;;;;;;;-2.07;60.41;99938.75;5122084;28;20044;-70
2021/12/08 07:39:19;;;;;;;15.82;9.35;;;;;;;-2.09;60.33;99931.00;5116855;28;20135;-72
2021/12/08 07:41:52;;;;;;;37.50;20.40;;;;;;;-2.16;60.40;99925.16;5074487;28;20089;-71
2021/12/08 07:44:21;;;;;;;47.20;26.75;;;;;;;-2.18;60.65;99919.19;5112081;28;20286;-73
2021/12/08 07:46:51;;;;;;;32.83;15.52;;;;;;;-2.14;60.27;99919.97;5112012;28;20044;-76
2021/12/08 07:49:24;;;;;;;30.38;10.55;;;;;;;-2.07;60.73;99915.44;5112425;28;20050;-74
2021/12/08 07:51:55;;;;;;;21.38;11.15;;;;;;;-2.05;60.34;99919.72;5111430;28;20051;-66
2021/12/08 07:54:24;;;;;;;27.33;11.98;;;;;;;-2.03;60.45;99919.69;5111092;28;20138;-75
2021/12/08 07:56:54;;;;;;;20.70;9.85;;;;;;;-2.00;60.17;99911.81;5117122;28;20047;-72
2021/12/08 07:59:22;;;;;;;32.42;15.05;;;;;;;-2.04;60.70;99916.22;5116386;28;20043;-71
2021/12/08 08:01:55;;;;;;;45.20;23.45;;;;;;;-2.03;60.54;99909.31;5113137;28;20135;-65
2021/12/08 08:04:25;;;;;;;28.10;16.08;;;;;;;-1.97;60.45;99907.41;5108669;28;20626;-76
2021/12/08 08:06:57;;;;;;;48.63;23.88;;;;;;;-1.93;60.49;99900.41;5109247;28;20046;-75
2021/12/08 08:09:29;;;;;;;25.52;12.60;;;;;;;-1.89;60.54;99904.63;5108778;28;20052;-75
2021/12/08 08:12:00;;;;;;;38.70;19.85;;;;;;;-1.87;60.56;99910.63;5106751;28;20048;-73
2021/12/08 08:14:31;;;;;;;27.80;15.25;;;;;;;-1.77;60.24;99904.28;5108267;28;20044;-71
2021/12/08 08:17:00;;;;;;;36.95;19.50;;;;;;;-1.84;60.30;99891.53;5105471;28;20043;-66
2021/12/08 08:19:30;;;;;;;30.23;14.52;;;;;;;-1.95;60.33;99886.66;5106460;28;20054;-76
2021/12/08 08:22:04;;;;;;;37.10;18.25;;;;;;;-1.94;60.62;99894.38;5106469;28;20090;-74
2021/12/08 08:24:31;;;;;;;29.33;15.43;;;;;;;-1.96;60.32;99891.00;5105197;28;20046;-65
2021/12/08 08:27:03;;;;;;;38.70;15.88;;;;;;;-1.96;60.35;99896.19;5107608;28;20051;-71
2021/12/08 08:29:30;;;;;;;37.97;15.27;;;;;;;-1.95;60.11;99902.19;5108290;28;20384;-72
2021/12/08 08:32:19;;;;;;;39.70;22.80;;;;;;;-1.98;60.29;99910.03;5106790;28;20640;-70
2021/12/08 08:34:47;;;;;;;26.92;13.85;;;;;;;-2.01;60.05;99923.06;5118226;28;20039;-74
2021/12/08 08:37:17;;;;;;;22.42;11.88;;;;;;;-2.05;60.13;99929.19;5118286;28;20484;-69
2021/12/08 08:39:49;;;;;;;35.47;17.70;;;;;;;-2.13;60.36;99917.31;5114815;28;20058;-69
2021/12/08 08:42:19;;;;;;;45.58;22.30;;;;;;;-2.10;60.53;99924.16;5108692;28;20131;-71
2021/12/08 08:44:50;;;;;;;25.27;12.77;;;;;;;-2.00;60.23;99929.94;5106952;28;20142;-69
2021/12/08 08:47:23;;;;;;;48.63;24.63;;;;;;;-1.95;60.03;99928.06;5109532;28;20487;-74
2021/12/08 08:49:51;;;;;;;28.60;12.02;;;;;;;-1.94;60.03;99924.59;5107754;28;20108;-69
2021/12/08 08:52:24;;;;;;;29.38;14.82;;;;;;;-1.95;60.03;99928.06;5106071;28;20044;-73
2021/12/08 08:54:54;;;;;;;51.22;23.48;;;;;;;-2.00;59.94;99924.75;5104250;28;20058;-77
2021/12/08 08:57:26;;;;;;;51.13;27.75;;;;;;;-2.04;59.88;99931.75;5105694;28;20055;-72
2021/12/08 08:59:58;;;;;;;34.33;17.02;;;;;;;-2.12;59.63;99931.94;5106417;28;20047;-73
2021/12/08 09:02:29;;;;;;;29.05;13.32;;;;;;;-2.19;59.85;99935.59;5104647;28;20044;-70
2021/12/08 09:05:00;;;;;;;51.97;23.58;;;;;;;-2.20;59.88;99940.78;5105524;28;20612;-77
2021/12/08 09:07:34;;;;;;;53.33;18.85;;;;;;;-2.14;59.95;99928.56;5105114;28;20054;-63
2021/12/08 09:10:06;;;;;;;38.58;17.58;;;;;;;-2.07;59.41;99925.78;5104166;28;20078;-68
2021/12/08 09:12:39;;;;;;;27.73;16.83;;;;;;;-2.00;59.40;99922.16;5104930;28;20119;-73
2021/12/08 09:15:09;;;;;;;29.13;12.20;;;;;;;-1.98;59.49;99912.63;5105767;28;20051;-75
2021/12/08 09:17:42;;;;;;;32.60;18.80;;;;;;;-1.99;59.16;99918.69;5107134;28;20053;-71
2021/12/08 09:20:14;;;;;;;44.95;20.02;;;;;;;-1.91;59.38;99921.91;5106109;28;20837;-74
2021/12/08 09:22:49;;;;;;;41.25;18.95;;;;;;;-1.81;59.09;99920.78;5104466;28;20103;-71
2021/12/08 09:25:22;;;;;;;43.88;18.55;;;;;;;-1.70;58.88;99912.72;5085215;28;20051;-66
2021/12/08 09:27:51;;;;;;;31.05;18.75;;;;;;;-1.58;58.46;99906.38;5104780;28;20055;-64
2021/12/08 09:30:22;;;;;;;44.40;19.10;;;;;;;-1.59;58.69;99891.72;5106641;28;20622;-68
2021/12/08 09:32:52;;;;;;;48.40;25.83;;;;;;;-1.51;58.59;99887.19;5103033;28;20059;-68
2021/12/08 09:35:24;;;;;;;54.13;25.13;;;;;;;-1.39;58.01;99879.06;5101913;28;20047;-66
2021/12/08 09:37:55;;;;;;;53.95;23.10;;;;;;;-1.36;58.21;99871.16;5101668;28;20407;-67
2021/12/08 09:40:33;;;;;;;32.80;15.75;;;;;;;-1.39;57.90;99879.06;5101317;28;20046;-65
2021/12/08 09:43:05;;;;;;;43.33;18.77;;;;;;;-1.47;58.32;99868.06;5100108;28;20574;-68
2021/12/08 09:45:35;;;;;;;40.47;21.10;;;;;;;-1.52;57.98;99859.56;5101685;28;20044;-72
2021/12/08 09:48:03;;;;;;;30.88;14.13;;;;;;;-1.48;57.90;99865.50;5103610;28;20055;-64
2021/12/08 09:50:30;;;;;;;57.97;26.75;;;;;;;-1.48;57.98;99881.03;5100842;28;20130;-64
2021/12/08 09:52:58;;;;;;;39.72;22.52;;;;;;;-1.41;57.96;99886.00;5107444;28;20051;-65
2021/12/08 09:55:25;;;;;;;34.03;18.23;;;;;;;-1.35;57.53;99883.25;5100218;28;20604;-68
2021/12/08 09:57:53;;;;;;;34.13;16.15;;;;;;;-1.32;57.34;99886.63;5103198;28;20498;-71
2021/12/08 10:00:26;;;;;;;29.65;18.00;;;;;;;-1.30;57.53;99877.91;5104904;28;20051;-69
2021/12/08 10:02:58;;;;;;;31.33;18.17;;;;;;;-1.28;57.33;99878.72;5105396;28;20102;-71
2021/12/08 10:05:26;;;;;;;27.38;13.02;;;;;;;-1.17;57.38;99881.84;5106027;28;20406;-75
2021/12/08 10:07:56;;;;;;;34.20;19.08;;;;;;;-1.21;57.06;99877.63;5108639;28;20111;-72
2021/12/08 10:10:25;;;;;;;28.27;13.95;;;;;;;-1.14;56.91;99864.50;5107157;28;20051;-72
2021/12/08 10:12:52;;;;;;;36.25;18.70;;;;;;;-1.18;56.76;99862.00;5104688;28;20046;-76
2021/12/08 10:15:22;;;;;;;36.85;23.52;;;;;;;-1.05;56.93;99859.03;5106310;28;20046;-72
2021/12/08 10:17:50;;;;;;;35.65;15.93;;;;;;;-0.89;56.70;99849.88;5104822;28;20047;-71
2021/12/08 10:20:20;;;;;;;32.25;15.00;;;;;;;-0.88;56.06;99850.72;5102989;28;20146;-69
2021/12/08 10:22:49;;;;;;;30.60;18.48;;;;;;;-0.82;56.23;99842.75;5107435;28;20108;-74
2021/12/08 10:25:19;;;;;;;34.35;15.48;;;;;;;-0.72;56.04;99843.28;5105135;28;20108;-73
2021/12/08 10:28:10;;;;;;;22.88;12.40;;;;;;;-0.63;56.06;99849.03;5102857;28;20050;-72
2021/12/08 10:30:41;;;;;;;28.73;14.80;;;;;;;-0.66;55.87;99840.50;5084780;28;20055;-71
2021/12/08 10:33:37;;;;;;;35.03;16.15;;;;;;;-0.52;55.69;99837.44;5102665;28;20063;-64
2021/12/08 10:36:18;;;;;;;22.02;10.60;;;;;;;-0.34;55.19;99841.16;5098811;28;20101;-75
2021/12/08 10:38:45;;;;;;;30.55;17.23;;;;;;;-0.22;55.28;99836.41;5082165;28;20070;-72
2021/12/08 10:41:13;;;;;;;19.38;11.30;;;;;;;-0.02;55.08;99837.44;5081576;28;20115;-69
2021/12/08 10:43:41;;;;;;;43.92;22.70;;;;;;;0.03;54.50;99830.34;5082505;28;20044;-75
2021/12/08 10:46:09;;;;;;;25.38;15.95;;;;;;;0.01;54.61;99836.50;5080785;28;20048;-72
2021/12/08 10:48:43;;;;;;;25.35;14.10;;;;;;;-0.01;54.91;99837.38;5082736;28;20563;-72
2021/12/08 10:54:26;;;;;;;32.35;18.73;;;;;;;0.17;54.25;99840.25;5081534;28;20676;-71
2021/12/08 10:56:56;;;;;;;28.20;15.15;;;;;;;-0.02;54.00;99843.50;5086575;28;20056;-70
2021/12/08 10:59:27;;;;;;;30.02;17.42;;;;;;;-0.16;53.82;99840.53;5087288;28;20093;-76
2021/12/08 11:01:59;;;;;;;19.25;10.57;;;;;;;-0.17;54.35;99840.59;5086704;28;20072;-68
2021/12/08 11:04:31;;;;;;;21.92;12.98;;;;;;;-0.22;54.10;99833.81;5086491;28;20104;-73
2021/12/08 11:07:06;;;;;;;29.27;16.33;;;;;;;-0.32;54.32;99837.63;5087310;28;20047;-71
2021/12/08 11:09:40;;;;;;;23.02;14.38;;;;;;;-0.22;54.17;99833.81;5090847;28;20099;-71
2021/12/08 11:12:08;;;;;;;17.55;10.48;;;;;;;-0.13;53.93;99831.78;5088759;28;20299;-74
2021/12/08 11:14:46;;;;;;;22.58;14.68;;;;;;;-0.21;54.25;99822.53;5085840;28;20048;-69
2021/12/08 11:17:26;;;;;;;23.52;15.40;;;;;;;-0.21;54.27;99812.13;5086119;28;20048;-71
2021/12/08 11:20:14;;;;;;;34.33;19.55;;;;;;;-0.24;54.31;99812.25;5087071;28;20048;-73
2021/12/08 11:22:44;;;;;;;29.00;17.00;;;;;;;-0.24;54.03;99801.03;5085586;28;20066;-73
2021/12/08 11:25:23;;;;;;;23.00;13.57;;;;;;;-0.29;54.53;99797.75;5083826;28;20044;-71
2021/12/08 11:27:50;;;;;;;31.30;16.30;;;;;;;-0.29;54.28;99798.59;5084826;28;20527;-72
2021/12/08 11:30:25;;;;;;;21.88;11.55;;;;;;;-0.25;54.26;99789.81;5085729;28;20101;-69
2021/12/08 11:32:53;;;;;;;28.33;15.57;;;;;;;-0.12;54.09;99789.38;5089188;28;20218;-68
2021/12/08 11:35:21;;;;;;;21.42;12.25;;;;;;;-0.07;54.48;99793.50;5087149;28;20746;-69
2021/12/08 11:37:59;;;;;;;23.98;13.60;;;;;;;0.03;54.28;99785.38;5085593;28;20050;-72
2021/12/08 11:40:26;;;;;;;36.13;17.50;;;;;;;-0.05;54.10;99788.25;5068544;28;20117;-70
2021/12/08 11:42:54;;;;;;;34.13;24.73;;;;;;;-0.13;54.40;99792.84;5083905;28;20044;-66
2021/12/08 11:45:23;;;;;;;25.88;13.40;;;;;;;-0.16;54.57;99785.16;5083352;28;20040;-72
2021/12/08 11:47:50;;;;;;;31.40;16.80;;;;;;;-0.15;54.53;99789.47;5083777;28;20125;-69
2021/12/08 11:50:21;;;;;;;36.50;17.45;;;;;;;-0.13;54.26;99792.84;5088745;28;20080;-65
2021/12/08 11:52:51;;;;;;;15.55;9.00;;;;;;;-0.12;54.35;99791.97;5090539;28;20083;-75
2021/12/08 11:55:21;;;;;;;23.33;13.98;;;;;;;-0.15;54.71;99779.09;5085826;28;20048;-75
2021/12/08 11:57:54;;;;;;;36.05;15.60;;;;;;;-0.10;54.75;99775.41;5085135;28;20071;-72
2021/12/08 12:00:26;;;;;;;24.40;13.13;;;;;;;-0.13;54.76;99779.88;5084443;28;20595;-75
2021/12/08 12:02:57;;;;;;;34.15;19.25;;;;;;;-0.30;54.82;99770.94;5083400;28;20573;-68